• Join FlightAware (Why Join?)
  • Login
  • US Flag 
02:20PM EDT


 

Airport Tracker/Info


-or-


 

Live Flight TrackerFlight Track Log ✈ DAL6140 ✈ 19-Apr-2013 ✈ KLGA - CYUL

Flight Track Log - Related Links

Times and Time Zones

All times are in EDT time to prevent confusion due to time zone crossing. See the DAL6140 flight status page for this flight to view local times or setup timezone preferences in your user account.

Time Position Orientation Groundspeed Altitude Reporting Facility
EDT Latitude Longitude Course Direction KTS MPH feet Rate Location/Type
03:36PM 40.7667 -73.8500 62° Northeast 152 175 1,200  Level New York TRACON
03:38PM 40.8069 -73.7508 62° Northeast 188 216 4,000 1,980 Climbing Boston Center
03:39PM 40.8825 -73.7028 26° Northeast 236 272 6,400 2,280 Climbing Boston Center
03:40PM 40.9558 -73.6467 30° Northeast 278 320 8,700 2,280 Climbing Boston Center
03:41PM 41.0419 -73.5931 25° Northeast 321 369 11,000 1,860 Climbing Boston Center
03:42PM 41.1489 -73.5233 26° Northeast 348 400 12,800 1,500 Climbing Boston Center
03:43PM 41.2369 -73.4697 25° Northeast 366 421 14,300 1,500 Climbing Boston Center
03:44PM 41.3439 -73.4022 25° Northeast 377 434 15,900 1,380 Climbing Boston Center
03:45PM 41.4361 -73.3428 26° Northeast 391 450 17,200 1,440 Climbing Boston Center
03:46PM 41.5219 -73.2636 35° Northeast 408 470 18,800 1,800 Climbing Boston Center
03:47PM 41.6125 -73.1481 44° Northeast 408 470 20,800 1,860 Climbing Boston Center
03:48PM 41.7189 -73.1186 12° North 385 443 22,600 1,200 Climbing Boston Center
03:49PM 41.8333 -73.1422 351° North 389 448 23,300 1,020 Climbing Boston Center
03:50PM 41.9481 -73.1631 352° North 397 457 24,700 1,500 Climbing Boston Center
03:51PM 42.0625 -73.1839 352° North 405 466 26,400 1,140 Climbing Boston Center
03:52PM 42.1769 -73.2050 352° North 405 466 27,000 300 Climbing Boston Center
03:53PM 42.2997 -73.2261 353° North 424 488 27,000  Level Boston Center
03:54PM 42.4475 -73.2392 356° North 467 537 27,000  Level Boston Center
03:55PM 42.5786 -73.2689 351° North 474 545 27,000  Level Boston Center
03:56PM 42.6953 -73.2931 351° North 479 551 27,000  Level Boston Center
03:57PM 42.8347 -73.3178 353° North 484 557 27,000  Level Boston Center
03:58PM 42.9992 -73.3456 353° North 484 557 27,000  Level Boston Center
03:59PM 43.1367 -73.3506 358° North 489 563 27,000  Level Boston Center
04:00PM 43.2642 -73.2897 19° North 476 548 27,000  Level Boston Center
04:01PM 43.3856 -73.2200 23° Northeast 471 542 27,000  Level Boston Center
04:02PM 43.5047 -73.1472 24° Northeast 471 542 27,000  Level Boston Center
04:03PM 43.6303 -73.0797 21° North 471 542 27,000  Level Boston Center
04:04PM 43.7697 -73.1014 354° North 436 502 27,000  Level Boston Center
04:05PM 43.8925 -73.1544 343° North 449 517 27,000  Level Boston Center
04:06PM 44.0169 -73.2108 342° North 460 529 27,000 -240 Level Boston Center
04:07PM 44.1436 -73.2703 341° North 472 543 26,600 -900 Descending Boston Center
04:08PM 44.2661 -73.3272 342° North 472 543 25,200 -1,500 Descending Boston Center
04:09PM 44.3825 -73.3811 342° North 453 521 23,700 -1,440 Descending Boston Center
04:10PM 44.4842 -73.4294 341° North 437 503 22,400 -1,740 Descending Boston Center
04:11PM 44.6003 -73.4839 342° North 437 503 20,200 -2,460 Descending Boston Center
04:12PM 44.7103 -73.5267 345° North 424 488 17,400 -2,700 Descending Boston Center
04:13PM 44.8311 -73.5378 356° North 418 481 14,900 -2,640 Descending Boston Center
04:14PM 44.9500 -73.5333 North 420 483 12,500 -2,040 Descending Montreal Center
04:16PM 45.1333 -73.5667 353° North 320 368 9,100 -1,500 Descending Montreal Center
04:17PM 45.2167 -73.5667 360° North 300 345 8,100 -600 Descending Montreal Center
04:18PM 45.3000 -73.5833 352° North 290 334 8,000 -600 Descending Montreal Center
04:19PM 45.3833 -73.5833 360° North 290 334 7,000 -1,260 Descending Montreal Center
04:20PM 45.4500 -73.5333 28° Northeast 300 345 5,500 -1,320 Descending Montreal Center
04:21PM 45.5167 -73.4500 41° Northeast 270 311 4,400 -780 Descending Montreal Center
04:22PM 45.5833 -73.4500 360° North 240 276 4,000 -600 Descending Montreal Center
04:23PM 45.6167 -73.5000 314° West 190 219 3,300 -600 Descending Montreal Center
04:24PM 45.6000 -73.5667 250° West 160 184 2,900 -540 Descending Montreal Center
04:25PM 45.5500 -73.6167 215° Southwest 170 196 2,300 -720 Descending Montreal Center
04:26PM 45.5333 -73.6500 234° Southwest 150 173 1,500 -720 Descending Montreal Center
04:27PM 45.5000 -73.7000 226° Southwest 130 150 900 -660 Descending Montreal Center
04:28PM 45.4667 -73.7167 199° South 130 150 200 -420 Descending Montreal Center
04:29PM 45.4500 -73.7500 235° Southwest 40 46 100 -120 Descending Montreal Center